sensor_id;sensor_type;location;lat;lon;timestamp;temperature;humidity
9816;DHT22;4947;44.526;11.360;2023-05-07T17:12:37;27.20;1.00
9816;DHT22;4947;44.526;11.360;2023-05-07T17:17:35;24.50;1.00
9816;DHT22;4947;44.526;11.360;2023-05-07T17:20:03;23.30;99.90
9816;DHT22;4947;44.526;11.360;2023-05-07T17:22:31;22.70;1.00
9816;DHT22;4947;44.526;11.360;2023-05-07T17:24:58;22.30;1.00
9816;DHT22;4947;44.526;11.360;2023-05-07T17:27:28;22.10;22.40
9816;DHT22;4947;44.526;11.360;2023-05-07T17:29:55;21.80;89.50
9816;DHT22;4947;44.526;11.360;2023-05-07T17:32:23;21.80;99.90
9816;DHT22;4947;44.526;11.360;2023-05-07T17:34:52;21.60;99.90
9816;DHT22;4947;44.526;11.360;2023-05-07T17:37:19;21.50;99.90
9816;DHT22;4947;44.526;11.360;2023-05-07T17:39:46;21.40;99.90
9816;DHT22;4947;44.526;11.360;2023-05-07T17:42:14;21.40;99.90
9816;DHT22;4947;44.526;11.360;2023-05-07T17:44:42;21.30;99.90
9816;DHT22;4947;44.526;11.360;2023-05-07T17:47:09;21.30;99.90
9816;DHT22;4947;44.526;11.360;2023-05-07T17:49:38;21.20;99.90
9816;DHT22;4947;44.526;11.360;2023-05-07T17:52:08;21.20;99.90
9816;DHT22;4947;44.526;11.360;2023-05-07T17:54:36;21.20;99.90
9816;DHT22;4947;44.526;11.360;2023-05-07T17:57:03;21.10;99.90
9816;DHT22;4947;44.526;11.360;2023-05-07T17:59:32;21.10;99.90
9816;DHT22;4947;44.526;11.360;2023-05-07T18:01:59;21.10;99.90
9816;DHT22;4947;44.526;11.360;2023-05-07T18:04:27;21.10;99.90
9816;DHT22;4947;44.526;11.360;2023-05-07T18:06:54;21.00;99.90
9816;DHT22;4947;44.526;11.360;2023-05-07T18:09:25;21.00;99.90
9816;DHT22;4947;44.526;11.360;2023-05-07T18:11:53;21.10;99.90
9816;DHT22;4947;44.526;11.360;2023-05-07T18:14:21;21.00;99.90
9816;DHT22;4947;44.526;11.360;2023-05-07T18:16:50;21.00;99.90
9816;DHT22;4947;44.526;11.360;2023-05-07T18:19:18;21.00;99.90
9816;DHT22;4947;44.526;11.360;2023-05-07T18:21:45;21.00;99.90
9816;DHT22;4947;44.526;11.360;2023-05-07T18:24:13;21.00;99.90
9816;DHT22;4947;44.526;11.360;2023-05-07T18:26:42;21.00;99.90
9816;DHT22;4947;44.526;11.360;2023-05-07T18:29:09;21.00;99.90
9816;DHT22;4947;44.526;11.360;2023-05-07T18:31:37;21.00;99.90
9816;DHT22;4947;44.526;11.360;2023-05-07T18:34:05;21.00;99.90
9816;DHT22;4947;44.526;11.360;2023-05-07T18:36:32;21.00;99.90
9816;DHT22;4947;44.526;11.360;2023-05-07T18:38:59;21.00;99.90
9816;DHT22;4947;44.526;11.360;2023-05-07T18:41:27;21.00;99.90
9816;DHT22;4947;44.526;11.360;2023-05-07T18:43:55;20.90;99.90
9816;DHT22;4947;44.526;11.360;2023-05-07T18:46:23;20.90;99.90
9816;DHT22;4947;44.526;11.360;2023-05-07T18:48:51;20.90;99.90
9816;DHT22;4947;44.526;11.360;2023-05-07T18:51:19;21.00;99.90
9816;DHT22;4947;44.526;11.360;2023-05-07T18:53:46;20.90;99.90
9816;DHT22;4947;44.526;11.360;2023-05-07T18:56:14;20.90;99.90
9816;DHT22;4947;44.526;11.360;2023-05-07T18:58:41;20.90;99.90
9816;DHT22;4947;44.526;11.360;2023-05-07T19:01:10;20.90;99.90
9816;DHT22;4947;44.526;11.360;2023-05-07T19:03:38;20.90;99.90
9816;DHT22;4947;44.526;11.360;2023-05-07T19:06:05;20.90;99.90
9816;DHT22;4947;44.526;11.360;2023-05-07T19:08:32;20.90;99.90
9816;DHT22;4947;44.526;11.360;2023-05-07T19:11:00;20.90;99.90
9816;DHT22;4947;44.526;11.360;2023-05-07T19:13:28;20.90;99.90
9816;DHT22;4947;44.526;11.360;2023-05-07T19:15:56;20.90;99.90
9816;DHT22;4947;44.526;11.360;2023-05-07T19:18:25;20.90;99.90
9816;DHT22;4947;44.526;11.360;2023-05-07T19:20:54;20.90;99.90
9816;DHT22;4947;44.526;11.360;2023-05-07T19:23:21;20.90;99.90
9816;DHT22;4947;44.526;11.360;2023-05-07T19:25:49;20.90;99.90
9816;DHT22;4947;44.526;11.360;2023-05-07T19:28:16;20.90;99.90
9816;DHT22;4947;44.526;11.360;2023-05-07T19:30:44;20.90;99.90
9816;DHT22;4947;44.526;11.360;2023-05-07T19:33:11;20.90;99.90
9816;DHT22;4947;44.526;11.360;2023-05-07T19:35:40;20.90;99.90
9816;DHT22;4947;44.526;11.360;2023-05-07T19:38:08;20.90;99.90
9816;DHT22;4947;44.526;11.360;2023-05-07T19:40:35;20.90;99.90
9816;DHT22;4947;44.526;11.360;2023-05-07T19:43:03;20.90;99.90
9816;DHT22;4947;44.526;11.360;2023-05-07T19:45:30;20.90;99.90
9816;DHT22;4947;44.526;11.360;2023-05-07T19:47:58;20.90;99.90
9816;DHT22;4947;44.526;11.360;2023-05-07T19:50:25;20.90;99.90
9816;DHT22;4947;44.526;11.360;2023-05-07T19:52:53;20.90;99.90
9816;DHT22;4947;44.526;11.360;2023-05-07T19:55:21;20.90;99.90
9816;DHT22;4947;44.526;11.360;2023-05-07T19:57:49;20.90;99.90
9816;DHT22;4947;44.526;11.360;2023-05-07T20:00:16;20.90;99.90
9816;DHT22;4947;44.526;11.360;2023-05-07T20:02:45;20.90;99.90
9816;DHT22;4947;44.526;11.360;2023-05-07T20:05:13;20.90;99.90
9816;DHT22;4947;44.526;11.360;2023-05-07T20:07:41;20.90;99.90
9816;DHT22;4947;44.526;11.360;2023-05-07T20:10:10;20.90;99.90
9816;DHT22;4947;44.526;11.360;2023-05-07T20:12:38;20.90;99.90
9816;DHT22;4947;44.526;11.360;2023-05-07T20:15:06;20.90;99.90
9816;DHT22;4947;44.526;11.360;2023-05-07T20:17:34;20.90;99.90
9816;DHT22;4947;44.526;11.360;2023-05-07T20:20:06;20.90;99.90
9816;DHT22;4947;44.526;11.360;2023-05-07T20:22:33;20.90;99.90
9816;DHT22;4947;44.526;11.360;2023-05-07T20:25:03;20.90;99.90
9816;DHT22;4947;44.526;11.360;2023-05-07T20:27:32;20.80;99.90
9816;DHT22;4947;44.526;11.360;2023-05-07T20:29:59;20.90;99.90
9816;DHT22;4947;44.526;11.360;2023-05-07T20:32:27;20.90;99.90
9816;DHT22;4947;44.526;11.360;2023-05-07T20:34:55;20.90;99.90
9816;DHT22;4947;44.526;11.360;2023-05-07T20:37:23;20.90;99.90
9816;DHT22;4947;44.526;11.360;2023-05-07T20:39:51;20.90;99.90
9816;DHT22;4947;44.526;11.360;2023-05-07T20:42:18;20.90;99.90
9816;DHT22;4947;44.526;11.360;2023-05-07T20:44:47;20.90;99.90
9816;DHT22;4947;44.526;11.360;2023-05-07T20:47:15;20.90;99.90
9816;DHT22;4947;44.526;11.360;2023-05-07T20:49:42;20.80;99.90
9816;DHT22;4947;44.526;11.360;2023-05-07T20:52:09;20.90;99.90
9816;DHT22;4947;44.526;11.360;2023-05-07T20:54:37;20.90;99.90
9816;DHT22;4947;44.526;11.360;2023-05-07T20:57:05;20.90;99.90
9816;DHT22;4947;44.526;11.360;2023-05-07T20:59:32;20.90;99.90
9816;DHT22;4947;44.526;11.360;2023-05-07T21:02:01;20.90;99.90
9816;DHT22;4947;44.526;11.360;2023-05-07T21:04:29;20.90;99.90
9816;DHT22;4947;44.526;11.360;2023-05-07T21:06:56;20.90;99.90
9816;DHT22;4947;44.526;11.360;2023-05-07T21:09:24;20.90;99.90
9816;DHT22;4947;44.526;11.360;2023-05-07T21:11:51;20.90;99.90
9816;DHT22;4947;44.526;11.360;2023-05-07T21:14:19;20.90;99.90
9816;DHT22;4947;44.526;11.360;2023-05-07T21:16:47;20.80;99.90
9816;DHT22;4947;44.526;11.360;2023-05-07T21:19:16;20.90;99.90
9816;DHT22;4947;44.526;11.360;2023-05-07T21:21:43;20.90;99.90
9816;DHT22;4947;44.526;11.360;2023-05-07T21:24:11;20.80;99.90
9816;DHT22;4947;44.526;11.360;2023-05-07T21:26:39;20.80;99.90
9816;DHT22;4947;44.526;11.360;2023-05-07T21:29:11;20.80;99.90
9816;DHT22;4947;44.526;11.360;2023-05-07T21:31:39;20.90;99.90
9816;DHT22;4947;44.526;11.360;2023-05-07T21:34:06;20.90;99.90
9816;DHT22;4947;44.526;11.360;2023-05-07T21:36:35;20.90;99.90
9816;DHT22;4947;44.526;11.360;2023-05-07T21:39:03;20.90;99.90
9816;DHT22;4947;44.526;11.360;2023-05-07T21:41:32;20.90;99.90
9816;DHT22;4947;44.526;11.360;2023-05-07T21:44:00;20.80;99.90
9816;DHT22;4947;44.526;11.360;2023-05-07T21:46:27;20.90;99.90
9816;DHT22;4947;44.526;11.360;2023-05-07T21:48:54;20.90;99.90
9816;DHT22;4947;44.526;11.360;2023-05-07T21:51:22;20.80;99.90
9816;DHT22;4947;44.526;11.360;2023-05-07T21:53:51;20.80;99.90
9816;DHT22;4947;44.526;11.360;2023-05-07T21:56:20;20.90;99.90
9816;DHT22;4947;44.526;11.360;2023-05-07T21:58:47;20.80;99.90
9816;DHT22;4947;44.526;11.360;2023-05-07T22:01:15;20.90;99.90
9816;DHT22;4947;44.526;11.360;2023-05-07T22:03:42;20.90;99.90
9816;DHT22;4947;44.526;11.360;2023-05-07T22:06:10;20.80;99.90
9816;DHT22;4947;44.526;11.360;2023-05-07T22:08:37;20.90;99.90
9816;DHT22;4947;44.526;11.360;2023-05-07T22:11:06;20.80;99.90
9816;DHT22;4947;44.526;11.360;2023-05-07T22:13:34;20.80;99.90
9816;DHT22;4947;44.526;11.360;2023-05-07T22:16:01;20.80;99.90
9816;DHT22;4947;44.526;11.360;2023-05-07T22:18:28;20.80;99.90
9816;DHT22;4947;44.526;11.360;2023-05-07T22:20:56;20.80;99.90
9816;DHT22;4947;44.526;11.360;2023-05-07T22:23:23;20.80;99.90
9816;DHT22;4947;44.526;11.360;2023-05-07T22:25:51;20.90;99.90
9816;DHT22;4947;44.526;11.360;2023-05-07T22:28:20;20.90;99.90
9816;DHT22;4947;44.526;11.360;2023-05-07T22:30:47;20.80;99.90
9816;DHT22;4947;44.526;11.360;2023-05-07T22:33:14;20.80;99.90
9816;DHT22;4947;44.526;11.360;2023-05-07T22:35:42;20.80;99.90
9816;DHT22;4947;44.526;11.360;2023-05-07T22:38:09;20.80;99.90
9816;DHT22;4947;44.526;11.360;2023-05-07T22:40:37;20.80;99.90
9816;DHT22;4947;44.526;11.360;2023-05-07T22:43:04;20.80;99.90
9816;DHT22;4947;44.526;11.360;2023-05-07T22:45:33;20.80;99.90
9816;DHT22;4947;44.526;11.360;2023-05-07T22:48:01;20.80;99.90
9816;DHT22;4947;44.526;11.360;2023-05-07T22:50:28;20.80;99.90
9816;DHT22;4947;44.526;11.360;2023-05-07T22:52:55;20.80;99.90
9816;DHT22;4947;44.526;11.360;2023-05-07T22:55:23;20.90;99.90
9816;DHT22;4947;44.526;11.360;2023-05-07T22:57:50;20.90;99.90
9816;DHT22;4947;44.526;11.360;2023-05-07T23:00:18;20.80;99.90
9816;DHT22;4947;44.526;11.360;2023-05-07T23:02:47;20.80;99.90
9816;DHT22;4947;44.526;11.360;2023-05-07T23:05:15;20.80;99.90
9816;DHT22;4947;44.526;11.360;2023-05-07T23:07:42;20.80;99.90
9816;DHT22;4947;44.526;11.360;2023-05-07T23:10:09;20.80;99.90
9816;DHT22;4947;44.526;11.360;2023-05-07T23:12:37;20.90;99.90
9816;DHT22;4947;44.526;11.360;2023-05-07T23:15:05;20.80;99.90
9816;DHT22;4947;44.526;11.360;2023-05-07T23:17:33;20.80;99.90
9816;DHT22;4947;44.526;11.360;2023-05-07T23:20:04;20.80;99.90
9816;DHT22;4947;44.526;11.360;2023-05-07T23:22:31;20.80;99.90
9816;DHT22;4947;44.526;11.360;2023-05-07T23:24:59;20.80;99.90
9816;DHT22;4947;44.526;11.360;2023-05-07T23:27:27;20.80;99.90
9816;DHT22;4947;44.526;11.360;2023-05-07T23:29:55;20.80;99.90
9816;DHT22;4947;44.526;11.360;2023-05-07T23:32:23;20.80;99.90
9816;DHT22;4947;44.526;11.360;2023-05-07T23:34:50;20.80;99.90
9816;DHT22;4947;44.526;11.360;2023-05-07T23:37:21;20.80;99.90
9816;DHT22;4947;44.526;11.360;2023-05-07T23:39:52;20.80;99.90
9816;DHT22;4947;44.526;11.360;2023-05-07T23:42:19;20.80;99.90
9816;DHT22;4947;44.526;11.360;2023-05-07T23:44:47;20.80;99.90
9816;DHT22;4947;44.526;11.360;2023-05-07T23:47:14;20.80;99.90
9816;DHT22;4947;44.526;11.360;2023-05-07T23:49:42;20.80;99.90
9816;DHT22;4947;44.526;11.360;2023-05-07T23:52:09;20.80;99.90
9816;DHT22;4947;44.526;11.360;2023-05-07T23:54:38;20.80;99.90
9816;DHT22;4947;44.526;11.360;2023-05-07T23:57:05;20.80;99.90
9816;DHT22;4947;44.526;11.360;2023-05-07T23:59:33;20.90;99.90
